sensor_id;sensor_type;location;lat;lon;timestamp;P1;durP1;ratioP1;P2;durP2;ratioP2
3991;SDS011;2010;48.194;16.394;2023-12-28T00:00:56;19.00;;;13.50;;
3991;SDS011;2010;48.194;16.394;2023-12-28T00:03:30;19.57;;;12.87;;
3991;SDS011;2010;48.194;16.394;2023-12-28T00:06:01;16.20;;;12.53;;
3991;SDS011;2010;48.194;16.394;2023-12-28T00:08:32;22.97;;;13.60;;
3991;SDS011;2010;48.194;16.394;2023-12-28T00:11:06;19.67;;;13.10;;
3991;SDS011;2010;48.194;16.394;2023-12-28T00:13:35;25.10;;;14.70;;
3991;SDS011;2010;48.194;16.394;2023-12-28T00:16:04;15.47;;;12.53;;
3991;SDS011;2010;48.194;16.394;2023-12-28T00:18:35;14.77;;;12.77;;
3991;SDS011;2010;48.194;16.394;2023-12-28T00:21:04;16.13;;;12.70;;
3991;SDS011;2010;48.194;16.394;2023-12-28T00:23:35;20.50;;;13.23;;
3991;SDS011;2010;48.194;16.394;2023-12-28T00:26:05;17.40;;;13.60;;
3991;SDS011;2010;48.194;16.394;2023-12-28T00:28:37;24.57;;;14.20;;
3991;SDS011;2010;48.194;16.394;2023-12-28T00:31:07;17.50;;;13.27;;
3991;SDS011;2010;48.194;16.394;2023-12-28T00:33:41;15.20;;;12.50;;
3991;SDS011;2010;48.194;16.394;2023-12-28T00:36:12;18.50;;;13.33;;
3991;SDS011;2010;48.194;16.394;2023-12-28T00:38:41;25.37;;;13.70;;
3991;SDS011;2010;48.194;16.394;2023-12-28T00:41:12;17.63;;;13.50;;
3991;SDS011;2010;48.194;16.394;2023-12-28T00:43:50;19.00;;;12.73;;
3991;SDS011;2010;48.194;16.394;2023-12-28T00:46:18;19.33;;;14.10;;
3991;SDS011;2010;48.194;16.394;2023-12-28T00:48:56;20.17;;;13.87;;
3991;SDS011;2010;48.194;16.394;2023-12-28T00:51:33;15.63;;;12.57;;
3991;SDS011;2010;48.194;16.394;2023-12-28T00:54:05;21.60;;;14.00;;
3991;SDS011;2010;48.194;16.394;2023-12-28T00:56:54;24.53;;;14.37;;
3991;SDS011;2010;48.194;16.394;2023-12-28T00:59:27;20.30;;;13.53;;
3991;SDS011;2010;48.194;16.394;2023-12-28T01:01:59;16.33;;;12.80;;
3991;SDS011;2010;48.194;16.394;2023-12-28T01:04:27;17.63;;;14.00;;
3991;SDS011;2010;48.194;16.394;2023-12-28T01:06:57;19.50;;;13.10;;
3991;SDS011;2010;48.194;16.394;2023-12-28T01:09:33;19.93;;;14.33;;
3991;SDS011;2010;48.194;16.394;2023-12-28T01:12:20;19.90;;;14.50;;
3991;SDS011;2010;48.194;16.394;2023-12-28T01:15:01;18.60;;;14.13;;
3991;SDS011;2010;48.194;16.394;2023-12-28T01:17:30;22.00;;;14.37;;
3991;SDS011;2010;48.194;16.394;2023-12-28T01:20:02;19.07;;;14.80;;
3991;SDS011;2010;48.194;16.394;2023-12-28T01:22:34;20.10;;;15.73;;
3991;SDS011;2010;48.194;16.394;2023-12-28T01:25:12;21.17;;;14.93;;
3991;SDS011;2010;48.194;16.394;2023-12-28T01:27:47;22.50;;;14.50;;
3991;SDS011;2010;48.194;16.394;2023-12-28T01:30:15;19.80;;;15.03;;
3991;SDS011;2010;48.194;16.394;2023-12-28T01:32:48;23.10;;;15.00;;
3991;SDS011;2010;48.194;16.394;2023-12-28T01:35:24;19.07;;;15.60;;
3991;SDS011;2010;48.194;16.394;2023-12-28T01:38:00;21.63;;;14.77;;
3991;SDS011;2010;48.194;16.394;2023-12-28T01:40:30;24.17;;;14.87;;
3991;SDS011;2010;48.194;16.394;2023-12-28T01:45:59;22.20;;;14.57;;
3991;SDS011;2010;48.194;16.394;2023-12-28T01:48:44;19.60;;;15.37;;
3991;SDS011;2010;48.194;16.394;2023-12-28T01:51:23;24.53;;;16.30;;
3991;SDS011;2010;48.194;16.394;2023-12-28T01:54:00;22.33;;;15.40;;
3991;SDS011;2010;48.194;16.394;2023-12-28T01:56:32;20.77;;;15.17;;
3991;SDS011;2010;48.194;16.394;2023-12-28T01:59:16;23.33;;;14.47;;
3991;SDS011;2010;48.194;16.394;2023-12-28T02:01:47;19.20;;;14.83;;
3991;SDS011;2010;48.194;16.394;2023-12-28T02:04:16;24.40;;;16.03;;
3991;SDS011;2010;48.194;16.394;2023-12-28T02:06:56;21.27;;;15.50;;
3991;SDS011;2010;48.194;16.394;2023-12-28T02:09:33;21.50;;;17.17;;
3991;SDS011;2010;48.194;16.394;2023-12-28T02:12:04;31.20;;;17.13;;
3991;SDS011;2010;48.194;16.394;2023-12-28T02:14:38;23.20;;;16.80;;
3991;SDS011;2010;48.194;16.394;2023-12-28T02:17:10;22.87;;;17.10;;
3991;SDS011;2010;48.194;16.394;2023-12-28T02:19:43;26.53;;;18.30;;
3991;SDS011;2010;48.194;16.394;2023-12-28T02:22:38;26.97;;;18.40;;
3991;SDS011;2010;48.194;16.394;2023-12-28T02:25:11;25.57;;;18.37;;
3991;SDS011;2010;48.194;16.394;2023-12-28T02:27:48;25.27;;;17.87;;
3991;SDS011;2010;48.194;16.394;2023-12-28T02:30:32;28.37;;;18.67;;
3991;SDS011;2010;48.194;16.394;2023-12-28T02:33:15;30.03;;;18.83;;
3991;SDS011;2010;48.194;16.394;2023-12-28T02:35:57;27.90;;;19.40;;
3991;SDS011;2010;48.194;16.394;2023-12-28T02:38:28;31.50;;;20.67;;
3991;SDS011;2010;48.194;16.394;2023-12-28T02:41:00;28.03;;;20.60;;
3991;SDS011;2010;48.194;16.394;2023-12-28T02:43:32;33.03;;;19.80;;
3991;SDS011;2010;48.194;16.394;2023-12-28T02:46:04;30.30;;;19.77;;
3991;SDS011;2010;48.194;16.394;2023-12-28T02:48:36;28.33;;;20.00;;
3991;SDS011;2010;48.194;16.394;2023-12-28T02:51:05;29.20;;;19.37;;
3991;SDS011;2010;48.194;16.394;2023-12-28T02:53:52;27.47;;;19.50;;
3991;SDS011;2010;48.194;16.394;2023-12-28T02:56:34;27.63;;;18.90;;
3991;SDS011;2010;48.194;16.394;2023-12-28T02:59:04;27.23;;;20.10;;
3991;SDS011;2010;48.194;16.394;2023-12-28T03:01:37;27.60;;;19.43;;
3991;SDS011;2010;48.194;16.394;2023-12-28T03:04:13;29.90;;;20.57;;
3991;SDS011;2010;48.194;16.394;2023-12-28T03:06:45;29.50;;;20.50;;
3991;SDS011;2010;48.194;16.394;2023-12-28T03:09:26;27.50;;;20.20;;
3991;SDS011;2010;48.194;16.394;2023-12-28T03:11:57;32.67;;;21.87;;
3991;SDS011;2010;48.194;16.394;2023-12-28T03:14:38;30.90;;;21.40;;
3991;SDS011;2010;48.194;16.394;2023-12-28T03:17:06;34.30;;;21.70;;
3991;SDS011;2010;48.194;16.394;2023-12-28T03:19:39;33.90;;;22.03;;
3991;SDS011;2010;48.194;16.394;2023-12-28T03:22:18;36.83;;;22.80;;
3991;SDS011;2010;48.194;16.394;2023-12-28T03:24:52;38.37;;;22.60;;
3991;SDS011;2010;48.194;16.394;2023-12-28T03:27:29;35.50;;;22.27;;
3991;SDS011;2010;48.194;16.394;2023-12-28T03:30:00;33.73;;;22.03;;
3991;SDS011;2010;48.194;16.394;2023-12-28T03:32:47;36.30;;;24.00;;
3991;SDS011;2010;48.194;16.394;2023-12-28T03:35:19;36.70;;;22.27;;
3991;SDS011;2010;48.194;16.394;2023-12-28T03:37:48;34.03;;;23.50;;
3991;SDS011;2010;48.194;16.394;2023-12-28T03:40:24;39.37;;;24.33;;
3991;SDS011;2010;48.194;16.394;2023-12-28T03:43:13;33.03;;;22.20;;
3991;SDS011;2010;48.194;16.394;2023-12-28T03:45:47;43.13;;;24.63;;
3991;SDS011;2010;48.194;16.394;2023-12-28T03:48:28;42.43;;;26.40;;
3991;SDS011;2010;48.194;16.394;2023-12-28T03:50:56;41.47;;;24.83;;
3991;SDS011;2010;48.194;16.394;2023-12-28T03:53:25;39.60;;;25.17;;
3991;SDS011;2010;48.194;16.394;2023-12-28T03:55:55;44.20;;;26.93;;
3991;SDS011;2010;48.194;16.394;2023-12-28T03:58:27;42.10;;;26.10;;
3991;SDS011;2010;48.194;16.394;2023-12-28T04:01:09;43.97;;;25.77;;
3991;SDS011;2010;48.194;16.394;2023-12-28T04:03:39;43.80;;;27.13;;
3991;SDS011;2010;48.194;16.394;2023-12-28T04:06:15;49.60;;;27.10;;
3991;SDS011;2010;48.194;16.394;2023-12-28T04:08:47;38.33;;;25.50;;
3991;SDS011;2010;48.194;16.394;2023-12-28T04:11:28;37.30;;;25.20;;
3991;SDS011;2010;48.194;16.394;2023-12-28T04:14:11;44.00;;;26.83;;
3991;SDS011;2010;48.194;16.394;2023-12-28T04:16:41;41.57;;;27.67;;
3991;SDS011;2010;48.194;16.394;2023-12-28T04:19:12;40.60;;;26.57;;
3991;SDS011;2010;48.194;16.394;2023-12-28T04:21:45;40.77;;;25.87;;
3991;SDS011;2010;48.194;16.394;2023-12-28T04:24:14;42.87;;;28.40;;
3991;SDS011;2010;48.194;16.394;2023-12-28T04:26:43;38.60;;;25.37;;
3991;SDS011;2010;48.194;16.394;2023-12-28T04:29:14;46.53;;;28.00;;
3991;SDS011;2010;48.194;16.394;2023-12-28T04:31:49;46.50;;;28.60;;
3991;SDS011;2010;48.194;16.394;2023-12-28T04:34:21;46.27;;;27.07;;
3991;SDS011;2010;48.194;16.394;2023-12-28T04:36:58;39.07;;;27.03;;
3991;SDS011;2010;48.194;16.394;2023-12-28T04:39:35;50.40;;;29.40;;
3991;SDS011;2010;48.194;16.394;2023-12-28T04:42:29;36.53;;;24.87;;
3991;SDS011;2010;48.194;16.394;2023-12-28T04:45:06;45.37;;;26.13;;
3991;SDS011;2010;48.194;16.394;2023-12-28T04:47:38;43.53;;;26.67;;
3991;SDS011;2010;48.194;16.394;2023-12-28T04:50:10;43.70;;;26.40;;
3991;SDS011;2010;48.194;16.394;2023-12-28T04:53:01;41.23;;;27.20;;
3991;SDS011;2010;48.194;16.394;2023-12-28T04:55:38;46.23;;;28.80;;
3991;SDS011;2010;48.194;16.394;2023-12-28T04:58:10;51.50;;;27.97;;
3991;SDS011;2010;48.194;16.394;2023-12-28T05:00:45;52.13;;;30.40;;
3991;SDS011;2010;48.194;16.394;2023-12-28T05:03:19;54.30;;;29.00;;
3991;SDS011;2010;48.194;16.394;2023-12-28T05:05:52;56.80;;;31.20;;
3991;SDS011;2010;48.194;16.394;2023-12-28T05:08:31;54.13;;;31.60;;
3991;SDS011;2010;48.194;16.394;2023-12-28T05:11:08;55.47;;;30.97;;
3991;SDS011;2010;48.194;16.394;2023-12-28T05:13:45;53.33;;;31.53;;
3991;SDS011;2010;48.194;16.394;2023-12-28T05:16:30;54.27;;;30.47;;
3991;SDS011;2010;48.194;16.394;2023-12-28T05:18:58;52.87;;;30.03;;
3991;SDS011;2010;48.194;16.394;2023-12-28T05:21:31;60.63;;;30.87;;
3991;SDS011;2010;48.194;16.394;2023-12-28T05:24:04;51.73;;;31.10;;
3991;SDS011;2010;48.194;16.394;2023-12-28T05:26:41;58.13;;;33.33;;
3991;SDS011;2010;48.194;16.394;2023-12-28T05:29:16;56.67;;;31.90;;
3991;SDS011;2010;48.194;16.394;2023-12-28T05:32:08;55.17;;;31.30;;
3991;SDS011;2010;48.194;16.394;2023-12-28T05:34:37;59.67;;;30.67;;
3991;SDS011;2010;48.194;16.394;2023-12-28T05:37:25;50.60;;;29.80;;
3991;SDS011;2010;48.194;16.394;2023-12-28T05:39:58;59.23;;;35.90;;
3991;SDS011;2010;48.194;16.394;2023-12-28T05:42:29;52.17;;;33.50;;
3991;SDS011;2010;48.194;16.394;2023-12-28T05:44:57;52.53;;;32.50;;
3991;SDS011;2010;48.194;16.394;2023-12-28T05:47:30;49.27;;;30.70;;
3991;SDS011;2010;48.194;16.394;2023-12-28T05:50:04;47.00;;;29.40;;
3991;SDS011;2010;48.194;16.394;2023-12-28T05:52:35;49.13;;;31.40;;
3991;SDS011;2010;48.194;16.394;2023-12-28T05:55:05;54.33;;;32.03;;
3991;SDS011;2010;48.194;16.394;2023-12-28T05:57:42;51.50;;;29.90;;
3991;SDS011;2010;48.194;16.394;2023-12-28T06:00:18;52.90;;;30.50;;
3991;SDS011;2010;48.194;16.394;2023-12-28T06:02:59;48.70;;;28.53;;
3991;SDS011;2010;48.194;16.394;2023-12-28T06:05:32;50.03;;;29.03;;
3991;SDS011;2010;48.194;16.394;2023-12-28T06:08:10;48.70;;;27.23;;
3991;SDS011;2010;48.194;16.394;2023-12-28T06:10:47;45.27;;;26.37;;
3991;SDS011;2010;48.194;16.394;2023-12-28T06:13:16;46.80;;;27.07;;
3991;SDS011;2010;48.194;16.394;2023-12-28T06:15:54;44.60;;;26.70;;
3991;SDS011;2010;48.194;16.394;2023-12-28T06:18:34;48.27;;;27.63;;
3991;SDS011;2010;48.194;16.394;2023-12-28T06:21:04;49.10;;;27.43;;
3991;SDS011;2010;48.194;16.394;2023-12-28T06:23:41;53.63;;;29.90;;
3991;SDS011;2010;48.194;16.394;2023-12-28T06:26:19;48.77;;;29.13;;
3991;SDS011;2010;48.194;16.394;2023-12-28T06:28:50;48.43;;;27.33;;
3991;SDS011;2010;48.194;16.394;2023-12-28T06:31:33;50.80;;;28.03;;
3991;SDS011;2010;48.194;16.394;2023-12-28T06:37:10;44.77;;;25.80;;
3991;SDS011;2010;48.194;16.394;2023-12-28T06:42:52;50.10;;;28.23;;
3991;SDS011;2010;48.194;16.394;2023-12-28T06:46:00;44.10;;;27.63;;
3991;SDS011;2010;48.194;16.394;2023-12-28T06:48:45;51.97;;;27.23;;
3991;SDS011;2010;48.194;16.394;2023-12-28T06:54:21;45.07;;;26.13;;
3991;SDS011;2010;48.194;16.394;2023-12-28T06:56:52;48.17;;;29.37;;
3991;SDS011;2010;48.194;16.394;2023-12-28T06:59:24;50.50;;;28.40;;
3991;SDS011;2010;48.194;16.394;2023-12-28T07:01:54;40.87;;;27.13;;
3991;SDS011;2010;48.194;16.394;2023-12-28T07:04:22;44.77;;;27.43;;
3991;SDS011;2010;48.194;16.394;2023-12-28T07:07:12;42.67;;;25.97;;
3991;SDS011;2010;48.194;16.394;2023-12-28T07:09:44;47.03;;;26.60;;
3991;SDS011;2010;48.194;16.394;2023-12-28T07:12:32;46.87;;;26.40;;
3991;SDS011;2010;48.194;16.394;2023-12-28T07:15:20;43.80;;;26.67;;
3991;SDS011;2010;48.194;16.394;2023-12-28T07:17:56;44.73;;;25.20;;
3991;SDS011;2010;48.194;16.394;2023-12-28T07:20:34;41.50;;;26.93;;
3991;SDS011;2010;48.194;16.394;2023-12-28T07:23:07;42.27;;;26.90;;
3991;SDS011;2010;48.194;16.394;2023-12-28T07:25:44;47.07;;;28.90;;
3991;SDS011;2010;48.194;16.394;2023-12-28T07:28:15;44.30;;;26.60;;
3991;SDS011;2010;48.194;16.394;2023-12-28T07:30:44;44.03;;;27.80;;
3991;SDS011;2010;48.194;16.394;2023-12-28T07:33:20;42.47;;;25.47;;
3991;SDS011;2010;48.194;16.394;2023-12-28T07:35:53;46.93;;;26.13;;
3991;SDS011;2010;48.194;16.394;2023-12-28T07:38:24;43.50;;;26.20;;
3991;SDS011;2010;48.194;16.394;2023-12-28T07:40:57;40.80;;;25.90;;
3991;SDS011;2010;48.194;16.394;2023-12-28T07:43:25;44.30;;;26.40;;
3991;SDS011;2010;48.194;16.394;2023-12-28T07:46:05;43.50;;;25.67;;
3991;SDS011;2010;48.194;16.394;2023-12-28T07:48:41;45.20;;;27.00;;
3991;SDS011;2010;48.194;16.394;2023-12-28T07:51:18;54.53;;;28.40;;
3991;SDS011;2010;48.194;16.394;2023-12-28T07:53:52;46.87;;;27.90;;
3991;SDS011;2010;48.194;16.394;2023-12-28T07:56:23;55.73;;;27.03;;
3991;SDS011;2010;48.194;16.394;2023-12-28T07:58:57;41.67;;;25.10;;
3991;SDS011;2010;48.194;16.394;2023-12-28T08:01:31;44.73;;;26.57;;
3991;SDS011;2010;48.194;16.394;2023-12-28T08:04:09;43.80;;;25.73;;
3991;SDS011;2010;48.194;16.394;2023-12-28T08:06:48;42.57;;;25.23;;
3991;SDS011;2010;48.194;16.394;2023-12-28T08:09:26;41.30;;;25.10;;
3991;SDS011;2010;48.194;16.394;2023-12-28T08:12:00;45.37;;;24.67;;
3991;SDS011;2010;48.194;16.394;2023-12-28T08:14:30;43.80;;;24.53;;
3991;SDS011;2010;48.194;16.394;2023-12-28T08:17:03;42.57;;;23.43;;
3991;SDS011;2010;48.194;16.394;2023-12-28T08:19:34;38.53;;;23.17;;
3991;SDS011;2010;48.194;16.394;2023-12-28T08:22:06;41.37;;;24.60;;
3991;SDS011;2010;48.194;16.394;2023-12-28T08:24:39;50.03;;;25.60;;
3991;SDS011;2010;48.194;16.394;2023-12-28T08:27:21;41.93;;;23.50;;
3991;SDS011;2010;48.194;16.394;2023-12-28T08:29:59;49.30;;;25.13;;
3991;SDS011;2010;48.194;16.394;2023-12-28T08:32:29;36.40;;;22.07;;
3991;SDS011;2010;48.194;16.394;2023-12-28T08:35:07;37.30;;;23.20;;
3991;SDS011;2010;48.194;16.394;2023-12-28T08:37:55;39.73;;;22.30;;
3991;SDS011;2010;48.194;16.394;2023-12-28T08:40:33;38.30;;;21.97;;
3991;SDS011;2010;48.194;16.394;2023-12-28T08:43:11;41.30;;;22.43;;
3991;SDS011;2010;48.194;16.394;2023-12-28T08:45:41;42.10;;;23.90;;
3991;SDS011;2010;48.194;16.394;2023-12-28T08:48:12;39.27;;;22.80;;
3991;SDS011;2010;48.194;16.394;2023-12-28T08:50:45;42.97;;;23.50;;
3991;SDS011;2010;48.194;16.394;2023-12-28T08:53:23;40.17;;;22.90;;
3991;SDS011;2010;48.194;16.394;2023-12-28T08:56:13;45.87;;;23.67;;
3991;SDS011;2010;48.194;16.394;2023-12-28T08:58:46;35.67;;;20.67;;
3991;SDS011;2010;48.194;16.394;2023-12-28T09:01:17;39.00;;;22.33;;
3991;SDS011;2010;48.194;16.394;2023-12-28T09:03:57;37.50;;;21.80;;
3991;SDS011;2010;48.194;16.394;2023-12-28T09:06:36;36.90;;;19.50;;
3991;SDS011;2010;48.194;16.394;2023-12-28T09:09:05;43.10;;;21.80;;
3991;SDS011;2010;48.194;16.394;2023-12-28T09:11:41;42.40;;;23.00;;
3991;SDS011;2010;48.194;16.394;2023-12-28T09:14:14;43.40;;;22.53;;
3991;SDS011;2010;48.194;16.394;2023-12-28T09:16:44;40.23;;;19.97;;
3991;SDS011;2010;48.194;16.394;2023-12-28T09:19:24;34.40;;;20.43;;
3991;SDS011;2010;48.194;16.394;2023-12-28T09:21:57;35.83;;;21.50;;
3991;SDS011;2010;48.194;16.394;2023-12-28T09:24:25;35.73;;;20.33;;
3991;SDS011;2010;48.194;16.394;2023-12-28T09:27:22;35.30;;;20.30;;
3991;SDS011;2010;48.194;16.394;2023-12-28T09:29:55;40.90;;;21.80;;
3991;SDS011;2010;48.194;16.394;2023-12-28T09:32:36;32.80;;;18.93;;
3991;SDS011;2010;48.194;16.394;2023-12-28T09:35:12;37.63;;;20.23;;
3991;SDS011;2010;48.194;16.394;2023-12-28T09:37:55;34.37;;;20.90;;
3991;SDS011;2010;48.194;16.394;2023-12-28T09:40:26;32.97;;;20.60;;
3991;SDS011;2010;48.194;16.394;2023-12-28T09:43:03;34.10;;;21.57;;
3991;SDS011;2010;48.194;16.394;2023-12-28T09:45:41;35.73;;;19.97;;
3991;SDS011;2010;48.194;16.394;2023-12-28T09:48:26;34.50;;;19.73;;
3991;SDS011;2010;48.194;16.394;2023-12-28T09:50:55;35.00;;;21.50;;
3991;SDS011;2010;48.194;16.394;2023-12-28T09:53:33;37.57;;;21.50;;
3991;SDS011;2010;48.194;16.394;2023-12-28T09:56:11;32.43;;;20.67;;
3991;SDS011;2010;48.194;16.394;2023-12-28T09:58:45;34.13;;;21.90;;
3991;SDS011;2010;48.194;16.394;2023-12-28T10:01:16;35.73;;;21.27;;
3991;SDS011;2010;48.194;16.394;2023-12-28T10:03:56;32.63;;;20.87;;
3991;SDS011;2010;48.194;16.394;2023-12-28T10:06:32;40.27;;;22.07;;
3991;SDS011;2010;48.194;16.394;2023-12-28T10:09:03;37.27;;;22.60;;
3991;SDS011;2010;48.194;16.394;2023-12-28T10:11:34;36.60;;;21.87;;
3991;SDS011;2010;48.194;16.394;2023-12-28T10:14:11;34.73;;;21.00;;
3991;SDS011;2010;48.194;16.394;2023-12-28T10:16:40;33.97;;;20.90;;
3991;SDS011;2010;48.194;16.394;2023-12-28T10:19:15;36.57;;;20.77;;
3991;SDS011;2010;48.194;16.394;2023-12-28T10:21:45;32.90;;;20.97;;
3991;SDS011;2010;48.194;16.394;2023-12-28T10:24:16;34.97;;;20.47;;
3991;SDS011;2010;48.194;16.394;2023-12-28T10:26:52;37.43;;;21.03;;
3991;SDS011;2010;48.194;16.394;2023-12-28T10:29:36;36.63;;;21.83;;
3991;SDS011;2010;48.194;16.394;2023-12-28T10:32:12;40.07;;;21.37;;
3991;SDS011;2010;48.194;16.394;2023-12-28T10:34:49;35.13;;;22.33;;
3991;SDS011;2010;48.194;16.394;2023-12-28T10:37:21;35.03;;;21.10;;
3991;SDS011;2010;48.194;16.394;2023-12-28T10:39:56;38.60;;;21.77;;
3991;SDS011;2010;48.194;16.394;2023-12-28T10:42:37;33.87;;;19.77;;
3991;SDS011;2010;48.194;16.394;2023-12-28T10:45:14;32.20;;;20.73;;
3991;SDS011;2010;48.194;16.394;2023-12-28T10:47:54;34.30;;;20.57;;
3991;SDS011;2010;48.194;16.394;2023-12-28T10:50:30;39.47;;;21.90;;
3991;SDS011;2010;48.194;16.394;2023-12-28T10:53:25;35.43;;;20.63;;
3991;SDS011;2010;48.194;16.394;2023-12-28T10:56:09;40.50;;;23.03;;
3991;SDS011;2010;48.194;16.394;2023-12-28T10:58:52;39.73;;;22.07;;
3991;SDS011;2010;48.194;16.394;2023-12-28T11:01:39;33.30;;;20.57;;
3991;SDS011;2010;48.194;16.394;2023-12-28T11:04:14;34.83;;;21.37;;
3991;SDS011;2010;48.194;16.394;2023-12-28T11:06:53;37.27;;;22.40;;
3991;SDS011;2010;48.194;16.394;2023-12-28T11:09:23;40.97;;;21.90;;
3991;SDS011;2010;48.194;16.394;2023-12-28T11:12:01;36.47;;;21.73;;
3991;SDS011;2010;48.194;16.394;2023-12-28T11:14:34;34.90;;;19.70;;
3991;SDS011;2010;48.194;16.394;2023-12-28T11:17:15;33.50;;;19.93;;
3991;SDS011;2010;48.194;16.394;2023-12-28T11:19:52;36.57;;;20.20;;
3991;SDS011;2010;48.194;16.394;2023-12-28T11:22:26;34.20;;;19.23;;
3991;SDS011;2010;48.194;16.394;2023-12-28T11:25:01;32.57;;;19.17;;
3991;SDS011;2010;48.194;16.394;2023-12-28T11:27:33;33.90;;;19.87;;
3991;SDS011;2010;48.194;16.394;2023-12-28T11:30:14;29.50;;;19.33;;
3991;SDS011;2010;48.194;16.394;2023-12-28T11:32:46;31.67;;;19.50;;
3991;SDS011;2010;48.194;16.394;2023-12-28T11:35:18;32.60;;;18.40;;
3991;SDS011;2010;48.194;16.394;2023-12-28T11:37:57;36.10;;;21.30;;
3991;SDS011;2010;48.194;16.394;2023-12-28T11:40:30;29.93;;;18.53;;
3991;SDS011;2010;48.194;16.394;2023-12-28T11:43:01;33.40;;;20.40;;
3991;SDS011;2010;48.194;16.394;2023-12-28T11:45:35;33.60;;;19.27;;
3991;SDS011;2010;48.194;16.394;2023-12-28T11:48:18;29.27;;;18.50;;
3991;SDS011;2010;48.194;16.394;2023-12-28T11:50:56;31.00;;;19.43;;
3991;SDS011;2010;48.194;16.394;2023-12-28T11:53:27;30.73;;;19.00;;
3991;SDS011;2010;48.194;16.394;2023-12-28T11:56:00;32.47;;;20.50;;
3991;SDS011;2010;48.194;16.394;2023-12-28T11:58:38;33.10;;;19.60;;
3991;SDS011;2010;48.194;16.394;2023-12-28T12:01:08;31.50;;;19.30;;
3991;SDS011;2010;48.194;16.394;2023-12-28T12:03:50;30.13;;;19.30;;
3991;SDS011;2010;48.194;16.394;2023-12-28T12:06:24;29.70;;;18.73;;
3991;SDS011;2010;48.194;16.394;2023-12-28T12:09:05;32.03;;;17.70;;
3991;SDS011;2010;48.194;16.394;2023-12-28T12:11:40;34.43;;;20.63;;
3991;SDS011;2010;48.194;16.394;2023-12-28T12:14:13;30.67;;;17.87;;
3991;SDS011;2010;48.194;16.394;2023-12-28T12:16:46;27.60;;;16.67;;
3991;SDS011;2010;48.194;16.394;2023-12-28T12:19:30;31.23;;;18.17;;
3991;SDS011;2010;48.194;16.394;2023-12-28T12:22:00;26.60;;;17.73;;
3991;SDS011;2010;48.194;16.394;2023-12-28T12:24:29;28.40;;;18.20;;
3991;SDS011;2010;48.194;16.394;2023-12-28T12:27:00;29.20;;;18.50;;
3991;SDS011;2010;48.194;16.394;2023-12-28T12:29:32;29.03;;;18.53;;
3991;SDS011;2010;48.194;16.394;2023-12-28T12:32:18;30.47;;;17.87;;
3991;SDS011;2010;48.194;16.394;2023-12-28T12:34:51;29.57;;;17.50;;
3991;SDS011;2010;48.194;16.394;2023-12-28T12:37:36;33.93;;;17.70;;
3991;SDS011;2010;48.194;16.394;2023-12-28T12:40:08;24.40;;;15.97;;
3991;SDS011;2010;48.194;16.394;2023-12-28T12:42:44;30.23;;;18.07;;
3991;SDS011;2010;48.194;16.394;2023-12-28T12:45:21;24.37;;;15.70;;
3991;SDS011;2010;48.194;16.394;2023-12-28T12:47:53;24.50;;;15.73;;
3991;SDS011;2010;48.194;16.394;2023-12-28T12:50:30;29.87;;;17.60;;
3991;SDS011;2010;48.194;16.394;2023-12-28T12:53:08;27.27;;;16.80;;
3991;SDS011;2010;48.194;16.394;2023-12-28T12:55:42;25.53;;;16.60;;
3991;SDS011;2010;48.194;16.394;2023-12-28T12:58:15;26.33;;;17.27;;
3991;SDS011;2010;48.194;16.394;2023-12-28T13:00:51;23.27;;;14.03;;
3991;SDS011;2010;48.194;16.394;2023-12-28T13:03:27;27.40;;;16.30;;
3991;SDS011;2010;48.194;16.394;2023-12-28T13:06:01;26.00;;;16.60;;
3991;SDS011;2010;48.194;16.394;2023-12-28T13:08:32;23.63;;;15.17;;
3991;SDS011;2010;48.194;16.394;2023-12-28T13:11:06;26.60;;;17.47;;
3991;SDS011;2010;48.194;16.394;2023-12-28T13:13:39;27.47;;;16.40;;
3991;SDS011;2010;48.194;16.394;2023-12-28T13:16:15;30.50;;;16.70;;
3991;SDS011;2010;48.194;16.394;2023-12-28T13:18:47;23.43;;;15.43;;
3991;SDS011;2010;48.194;16.394;2023-12-28T13:21:24;22.20;;;14.30;;
3991;SDS011;2010;48.194;16.394;2023-12-28T13:23:53;23.80;;;15.37;;
3991;SDS011;2010;48.194;16.394;2023-12-28T13:29:14;29.27;;;16.97;;
3991;SDS011;2010;48.194;16.394;2023-12-28T13:31:46;26.90;;;17.50;;
3991;SDS011;2010;48.194;16.394;2023-12-28T13:34:17;23.27;;;16.50;;
3991;SDS011;2010;48.194;16.394;2023-12-28T13:36:51;27.47;;;16.90;;
3991;SDS011;2010;48.194;16.394;2023-12-28T13:39:24;23.60;;;15.70;;
3991;SDS011;2010;48.194;16.394;2023-12-28T13:41:55;25.73;;;15.93;;
3991;SDS011;2010;48.194;16.394;2023-12-28T13:44:24;27.60;;;16.00;;
3991;SDS011;2010;48.194;16.394;2023-12-28T13:46:58;25.57;;;17.20;;
3991;SDS011;2010;48.194;16.394;2023-12-28T13:49:34;21.60;;;14.37;;
3991;SDS011;2010;48.194;16.394;2023-12-28T13:52:14;24.13;;;16.17;;
3991;SDS011;2010;48.194;16.394;2023-12-28T13:54:53;23.23;;;14.63;;
3991;SDS011;2010;48.194;16.394;2023-12-28T13:57:30;39.77;;;24.43;;
3991;SDS011;2010;48.194;16.394;2023-12-28T14:00:04;28.50;;;18.03;;
3991;SDS011;2010;48.194;16.394;2023-12-28T14:02:42;27.70;;;17.03;;
3991;SDS011;2010;48.194;16.394;2023-12-28T14:05:10;29.27;;;17.43;;
3991;SDS011;2010;48.194;16.394;2023-12-28T14:07:55;26.10;;;16.30;;
3991;SDS011;2010;48.194;16.394;2023-12-28T14:10:41;24.73;;;16.63;;
3991;SDS011;2010;48.194;16.394;2023-12-28T14:13:10;26.77;;;16.57;;
3991;SDS011;2010;48.194;16.394;2023-12-28T14:15:46;24.53;;;15.97;;
3991;SDS011;2010;48.194;16.394;2023-12-28T14:18:14;27.90;;;16.63;;
3991;SDS011;2010;48.194;16.394;2023-12-28T14:20:45;28.23;;;17.07;;
3991;SDS011;2010;48.194;16.394;2023-12-28T14:23:16;25.63;;;16.33;;
3991;SDS011;2010;48.194;16.394;2023-12-28T14:25:52;24.33;;;15.43;;
3991;SDS011;2010;48.194;16.394;2023-12-28T14:28:41;30.63;;;18.00;;
3991;SDS011;2010;48.194;16.394;2023-12-28T14:31:15;27.73;;;17.30;;
3991;SDS011;2010;48.194;16.394;2023-12-28T14:33:53;29.57;;;17.93;;
3991;SDS011;2010;48.194;16.394;2023-12-28T14:36:25;30.93;;;19.03;;
3991;SDS011;2010;48.194;16.394;2023-12-28T14:39:01;28.90;;;18.27;;
3991;SDS011;2010;48.194;16.394;2023-12-28T14:41:33;26.33;;;17.40;;
3991;SDS011;2010;48.194;16.394;2023-12-28T14:44:11;32.27;;;18.20;;
3991;SDS011;2010;48.194;16.394;2023-12-28T14:47:03;29.80;;;19.20;;
3991;SDS011;2010;48.194;16.394;2023-12-28T14:49:32;28.20;;;18.80;;
3991;SDS011;2010;48.194;16.394;2023-12-28T14:52:03;31.50;;;19.17;;
3991;SDS011;2010;48.194;16.394;2023-12-28T14:54:41;29.90;;;19.13;;
3991;SDS011;2010;48.194;16.394;2023-12-28T14:57:11;31.73;;;19.97;;
3991;SDS011;2010;48.194;16.394;2023-12-28T14:59:42;35.40;;;21.93;;
3991;SDS011;2010;48.194;16.394;2023-12-28T15:02:14;29.53;;;19.50;;
3991;SDS011;2010;48.194;16.394;2023-12-28T15:04:54;30.70;;;20.00;;
3991;SDS011;2010;48.194;16.394;2023-12-28T15:07:27;32.83;;;21.97;;
3991;SDS011;2010;48.194;16.394;2023-12-28T15:10:12;32.23;;;19.83;;
3991;SDS011;2010;48.194;16.394;2023-12-28T15:12:50;32.37;;;20.20;;
3991;SDS011;2010;48.194;16.394;2023-12-28T15:15:28;37.37;;;21.77;;
3991;SDS011;2010;48.194;16.394;2023-12-28T15:18:10;35.80;;;21.13;;
3991;SDS011;2010;48.194;16.394;2023-12-28T15:20:44;34.63;;;22.20;;
3991;SDS011;2010;48.194;16.394;2023-12-28T15:23:22;44.03;;;23.80;;
3991;SDS011;2010;48.194;16.394;2023-12-28T15:26:05;36.07;;;23.73;;
3991;SDS011;2010;48.194;16.394;2023-12-28T15:28:34;35.67;;;21.80;;
3991;SDS011;2010;48.194;16.394;2023-12-28T15:31:05;34.23;;;23.13;;
3991;SDS011;2010;48.194;16.394;2023-12-28T15:33:49;39.43;;;23.33;;
3991;SDS011;2010;48.194;16.394;2023-12-28T15:36:25;33.97;;;21.60;;